sensor_id;sensor_type;location;lat;lon;timestamp;P1;durP1;ratioP1;P2;durP2;ratioP2
12707;SDS011;6418;50.824;4.718;2022-07-29T00:01:59;7.90;;;3.50;;
12707;SDS011;6418;50.824;4.718;2022-07-29T00:04:26;8.23;;;3.60;;
12707;SDS011;6418;50.824;4.718;2022-07-29T00:06:53;6.63;;;3.30;;
12707;SDS011;6418;50.824;4.718;2022-07-29T00:09:22;8.17;;;3.50;;
12707;SDS011;6418;50.824;4.718;2022-07-29T00:11:48;7.13;;;3.60;;
12707;SDS011;6418;50.824;4.718;2022-07-29T00:14:15;8.53;;;3.60;;
12707;SDS011;6418;50.824;4.718;2022-07-29T00:16:42;7.90;;;3.50;;
12707;SDS011;6418;50.824;4.718;2022-07-29T00:19:09;6.90;;;3.27;;
12707;SDS011;6418;50.824;4.718;2022-07-29T00:21:36;10.30;;;3.63;;
12707;SDS011;6418;50.824;4.718;2022-07-29T00:24:03;8.00;;;3.10;;
12707;SDS011;6418;50.824;4.718;2022-07-29T00:26:32;7.63;;;3.63;;
12707;SDS011;6418;50.824;4.718;2022-07-29T00:28:59;6.27;;;3.30;;
12707;SDS011;6418;50.824;4.718;2022-07-29T00:31:26;7.63;;;3.50;;
12707;SDS011;6418;50.824;4.718;2022-07-29T00:33:53;9.67;;;3.60;;
12707;SDS011;6418;50.824;4.718;2022-07-29T00:36:20;8.00;;;3.37;;
12707;SDS011;6418;50.824;4.718;2022-07-29T00:38:46;8.17;;;3.50;;
12707;SDS011;6418;50.824;4.718;2022-07-29T00:41:13;6.77;;;3.50;;
12707;SDS011;6418;50.824;4.718;2022-07-29T00:43:42;7.10;;;3.33;;
12707;SDS011;6418;50.824;4.718;2022-07-29T00:46:10;8.93;;;3.73;;
12707;SDS011;6418;50.824;4.718;2022-07-29T00:48:37;9.33;;;3.53;;
12707;SDS011;6418;50.824;4.718;2022-07-29T00:51:05;5.70;;;3.40;;
12707;SDS011;6418;50.824;4.718;2022-07-29T00:53:35;10.23;;;4.00;;
12707;SDS011;6418;50.824;4.718;2022-07-29T00:56:02;7.90;;;3.60;;
12707;SDS011;6418;50.824;4.718;2022-07-29T00:58:29;6.57;;;3.30;;
12707;SDS011;6418;50.824;4.718;2022-07-29T01:00:59;9.27;;;3.80;;
12707;SDS011;6418;50.824;4.718;2022-07-29T01:03:26;7.43;;;3.43;;
12707;SDS011;6418;50.824;4.718;2022-07-29T01:05:53;9.43;;;3.43;;
12707;SDS011;6418;50.824;4.718;2022-07-29T01:08:20;7.80;;;3.33;;
12707;SDS011;6418;50.824;4.718;2022-07-29T01:10:49;8.83;;;3.60;;
12707;SDS011;6418;50.824;4.718;2022-07-29T01:13:18;10.03;;;3.70;;
12707;SDS011;6418;50.824;4.718;2022-07-29T01:15:47;8.63;;;3.63;;
12707;SDS011;6418;50.824;4.718;2022-07-29T01:18:22;7.67;;;3.53;;
12707;SDS011;6418;50.824;4.718;2022-07-29T01:20:59;8.20;;;3.80;;
12707;SDS011;6418;50.824;4.718;2022-07-29T01:23:52;7.67;;;3.63;;
12707;SDS011;6418;50.824;4.718;2022-07-29T01:26:45;7.13;;;3.83;;
12707;SDS011;6418;50.824;4.718;2022-07-29T01:29:18;9.00;;;3.83;;
12707;SDS011;6418;50.824;4.718;2022-07-29T01:31:51;9.53;;;3.80;;
12707;SDS011;6418;50.824;4.718;2022-07-29T01:34:27;6.27;;;3.60;;
12707;SDS011;6418;50.824;4.718;2022-07-29T01:37:01;9.57;;;3.93;;
12707;SDS011;6418;50.824;4.718;2022-07-29T01:39:35;9.13;;;3.93;;
12707;SDS011;6418;50.824;4.718;2022-07-29T01:42:06;8.50;;;3.90;;
12707;SDS011;6418;50.824;4.718;2022-07-29T01:44:41;8.87;;;3.83;;
12707;SDS011;6418;50.824;4.718;2022-07-29T01:47:20;11.33;;;3.97;;
12707;SDS011;6418;50.824;4.718;2022-07-29T01:49:52;9.13;;;4.03;;
12707;SDS011;6418;50.824;4.718;2022-07-29T01:52:23;8.53;;;3.60;;
12707;SDS011;6418;50.824;4.718;2022-07-29T01:54:57;7.83;;;3.90;;
12707;SDS011;6418;50.824;4.718;2022-07-29T01:57:29;6.67;;;3.77;;
12707;SDS011;6418;50.824;4.718;2022-07-29T02:00:01;10.90;;;4.27;;
12707;SDS011;6418;50.824;4.718;2022-07-29T02:02:29;7.20;;;3.90;;
12707;SDS011;6418;50.824;4.718;2022-07-29T02:04:58;8.33;;;4.20;;
12707;SDS011;6418;50.824;4.718;2022-07-29T02:07:28;8.37;;;3.70;;
12707;SDS011;6418;50.824;4.718;2022-07-29T02:09:58;10.47;;;4.00;;
12707;SDS011;6418;50.824;4.718;2022-07-29T02:12:26;9.53;;;4.03;;
12707;SDS011;6418;50.824;4.718;2022-07-29T02:14:55;9.57;;;3.60;;
12707;SDS011;6418;50.824;4.718;2022-07-29T02:17:31;6.80;;;3.83;;
12707;SDS011;6418;50.824;4.718;2022-07-29T02:20:02;10.60;;;3.97;;
12707;SDS011;6418;50.824;4.718;2022-07-29T02:22:31;8.60;;;3.80;;
12707;SDS011;6418;50.824;4.718;2022-07-29T02:25:01;11.27;;;4.07;;
12707;SDS011;6418;50.824;4.718;2022-07-29T02:27:28;11.57;;;4.13;;
12707;SDS011;6418;50.824;4.718;2022-07-29T02:29:55;9.10;;;3.97;;
12707;SDS011;6418;50.824;4.718;2022-07-29T02:32:28;9.23;;;3.87;;
12707;SDS011;6418;50.824;4.718;2022-07-29T02:34:57;11.43;;;4.60;;
12707;SDS011;6418;50.824;4.718;2022-07-29T02:37:25;7.53;;;3.90;;
12707;SDS011;6418;50.824;4.718;2022-07-29T02:39:54;7.30;;;3.83;;
12707;SDS011;6418;50.824;4.718;2022-07-29T02:42:23;7.17;;;3.80;;
12707;SDS011;6418;50.824;4.718;2022-07-29T02:44:52;10.57;;;4.03;;
12707;SDS011;6418;50.824;4.718;2022-07-29T02:47:20;9.10;;;4.10;;
12707;SDS011;6418;50.824;4.718;2022-07-29T02:49:53;8.47;;;4.10;;
12707;SDS011;6418;50.824;4.718;2022-07-29T02:52:24;11.07;;;4.00;;
12707;SDS011;6418;50.824;4.718;2022-07-29T02:54:54;8.10;;;4.07;;
12707;SDS011;6418;50.824;4.718;2022-07-29T02:57:28;10.30;;;4.10;;
12707;SDS011;6418;50.824;4.718;2022-07-29T03:00:00;13.80;;;4.57;;
12707;SDS011;6418;50.824;4.718;2022-07-29T03:02:30;8.93;;;3.80;;
12707;SDS011;6418;50.824;4.718;2022-07-29T03:05:03;8.90;;;4.03;;
12707;SDS011;6418;50.824;4.718;2022-07-29T03:07:33;9.67;;;4.20;;
12707;SDS011;6418;50.824;4.718;2022-07-29T03:10:01;9.13;;;4.40;;
12707;SDS011;6418;50.824;4.718;2022-07-29T03:12:29;9.43;;;4.20;;
12707;SDS011;6418;50.824;4.718;2022-07-29T03:14:57;10.87;;;4.27;;
12707;SDS011;6418;50.824;4.718;2022-07-29T03:17:26;9.50;;;4.33;;
12707;SDS011;6418;50.824;4.718;2022-07-29T03:19:54;7.73;;;4.23;;
12707;SDS011;6418;50.824;4.718;2022-07-29T03:22:22;8.37;;;4.40;;
12707;SDS011;6418;50.824;4.718;2022-07-29T03:24:50;14.40;;;4.07;;
12707;SDS011;6418;50.824;4.718;2022-07-29T03:27:17;7.17;;;4.17;;
12707;SDS011;6418;50.824;4.718;2022-07-29T03:29:44;8.13;;;4.30;;
12707;SDS011;6418;50.824;4.718;2022-07-29T03:32:11;9.17;;;4.10;;
12707;SDS011;6418;50.824;4.718;2022-07-29T03:34:38;9.30;;;3.97;;
12707;SDS011;6418;50.824;4.718;2022-07-29T03:37:06;9.60;;;4.47;;
12707;SDS011;6418;50.824;4.718;2022-07-29T03:39:35;10.43;;;4.27;;
12707;SDS011;6418;50.824;4.718;2022-07-29T03:42:04;9.30;;;4.00;;
12707;SDS011;6418;50.824;4.718;2022-07-29T03:44:34;11.07;;;4.07;;
12707;SDS011;6418;50.824;4.718;2022-07-29T03:47:02;8.83;;;4.20;;
12707;SDS011;6418;50.824;4.718;2022-07-29T03:49:32;9.87;;;4.30;;
12707;SDS011;6418;50.824;4.718;2022-07-29T03:52:03;9.60;;;4.20;;
12707;SDS011;6418;50.824;4.718;2022-07-29T03:54:30;10.67;;;4.50;;
12707;SDS011;6418;50.824;4.718;2022-07-29T03:56:59;10.37;;;4.30;;
12707;SDS011;6418;50.824;4.718;2022-07-29T03:59:27;9.70;;;4.40;;
12707;SDS011;6418;50.824;4.718;2022-07-29T04:01:56;8.03;;;4.50;;
12707;SDS011;6418;50.824;4.718;2022-07-29T04:04:23;10.30;;;4.60;;
12707;SDS011;6418;50.824;4.718;2022-07-29T04:06:51;9.70;;;4.37;;
12707;SDS011;6418;50.824;4.718;2022-07-29T04:09:18;8.67;;;4.37;;
12707;SDS011;6418;50.824;4.718;2022-07-29T04:11:45;12.93;;;4.53;;
12707;SDS011;6418;50.824;4.718;2022-07-29T04:14:14;11.47;;;4.23;;
12707;SDS011;6418;50.824;4.718;2022-07-29T04:16:40;8.27;;;4.60;;
12707;SDS011;6418;50.824;4.718;2022-07-29T04:19:07;11.37;;;4.50;;
12707;SDS011;6418;50.824;4.718;2022-07-29T04:21:36;9.83;;;4.50;;
12707;SDS011;6418;50.824;4.718;2022-07-29T04:24:04;10.13;;;4.70;;
12707;SDS011;6418;50.824;4.718;2022-07-29T04:26:31;11.13;;;4.60;;
12707;SDS011;6418;50.824;4.718;2022-07-29T04:28:58;9.60;;;4.50;;
12707;SDS011;6418;50.824;4.718;2022-07-29T04:31:27;11.37;;;4.50;;
12707;SDS011;6418;50.824;4.718;2022-07-29T04:33:54;10.67;;;4.30;;
12707;SDS011;6418;50.824;4.718;2022-07-29T04:36:21;8.90;;;4.30;;
12707;SDS011;6418;50.824;4.718;2022-07-29T04:38:48;10.27;;;4.80;;
12707;SDS011;6418;50.824;4.718;2022-07-29T04:41:14;10.20;;;4.60;;
12707;SDS011;6418;50.824;4.718;2022-07-29T04:43:41;12.77;;;4.93;;
12707;SDS011;6418;50.824;4.718;2022-07-29T04:46:08;10.87;;;4.47;;
12707;SDS011;6418;50.824;4.718;2022-07-29T04:48:37;8.23;;;4.20;;
12707;SDS011;6418;50.824;4.718;2022-07-29T04:51:04;9.07;;;4.23;;
12707;SDS011;6418;50.824;4.718;2022-07-29T04:53:31;10.00;;;4.90;;
12707;SDS011;6418;50.824;4.718;2022-07-29T04:55:58;9.67;;;4.43;;
12707;SDS011;6418;50.824;4.718;2022-07-29T04:58:25;12.50;;;4.70;;
12707;SDS011;6418;50.824;4.718;2022-07-29T05:00:52;10.30;;;4.60;;
12707;SDS011;6418;50.824;4.718;2022-07-29T05:03:19;10.30;;;4.77;;
12707;SDS011;6418;50.824;4.718;2022-07-29T05:05:47;9.17;;;4.60;;
12707;SDS011;6418;50.824;4.718;2022-07-29T05:08:14;9.73;;;4.73;;
12707;SDS011;6418;50.824;4.718;2022-07-29T05:10:41;10.53;;;4.83;;
12707;SDS011;6418;50.824;4.718;2022-07-29T05:13:08;10.93;;;4.97;;
12707;SDS011;6418;50.824;4.718;2022-07-29T05:15:35;10.13;;;4.70;;
12707;SDS011;6418;50.824;4.718;2022-07-29T05:18:03;9.77;;;4.90;;
12707;SDS011;6418;50.824;4.718;2022-07-29T05:20:30;8.67;;;4.83;;
12707;SDS011;6418;50.824;4.718;2022-07-29T05:22:59;12.40;;;5.10;;
12707;SDS011;6418;50.824;4.718;2022-07-29T05:25:28;13.53;;;4.87;;
12707;SDS011;6418;50.824;4.718;2022-07-29T05:27:55;9.93;;;5.20;;
12707;SDS011;6418;50.824;4.718;2022-07-29T05:30:23;11.80;;;5.50;;
12707;SDS011;6418;50.824;4.718;2022-07-29T05:32:50;14.93;;;5.30;;
12707;SDS011;6418;50.824;4.718;2022-07-29T05:35:17;13.40;;;5.40;;
12707;SDS011;6418;50.824;4.718;2022-07-29T05:37:44;13.83;;;5.50;;
12707;SDS011;6418;50.824;4.718;2022-07-29T05:40:13;11.17;;;5.20;;
12707;SDS011;6418;50.824;4.718;2022-07-29T05:42:40;11.37;;;5.30;;
12707;SDS011;6418;50.824;4.718;2022-07-29T05:45:07;10.70;;;5.50;;
12707;SDS011;6418;50.824;4.718;2022-07-29T05:47:34;10.87;;;5.13;;
12707;SDS011;6418;50.824;4.718;2022-07-29T05:50:01;14.30;;;5.63;;
12707;SDS011;6418;50.824;4.718;2022-07-29T05:52:29;12.00;;;5.53;;
12707;SDS011;6418;50.824;4.718;2022-07-29T05:54:56;10.47;;;5.40;;
12707;SDS011;6418;50.824;4.718;2022-07-29T05:57:24;10.13;;;5.90;;
12707;SDS011;6418;50.824;4.718;2022-07-29T05:59:51;11.53;;;5.63;;
12707;SDS011;6418;50.824;4.718;2022-07-29T06:02:19;10.40;;;5.83;;
12707;SDS011;6418;50.824;4.718;2022-07-29T06:04:46;11.77;;;5.43;;
12707;SDS011;6418;50.824;4.718;2022-07-29T06:07:13;10.97;;;5.83;;
12707;SDS011;6418;50.824;4.718;2022-07-29T06:09:41;11.40;;;5.73;;
12707;SDS011;6418;50.824;4.718;2022-07-29T06:12:08;10.90;;;5.57;;
12707;SDS011;6418;50.824;4.718;2022-07-29T06:14:36;14.87;;;6.47;;
12707;SDS011;6418;50.824;4.718;2022-07-29T06:17:04;10.47;;;5.50;;
12707;SDS011;6418;50.824;4.718;2022-07-29T06:19:33;13.40;;;5.97;;
12707;SDS011;6418;50.824;4.718;2022-07-29T06:22:01;10.60;;;6.00;;
12707;SDS011;6418;50.824;4.718;2022-07-29T06:24:28;13.10;;;6.17;;
12707;SDS011;6418;50.824;4.718;2022-07-29T06:26:55;10.73;;;5.67;;
12707;SDS011;6418;50.824;4.718;2022-07-29T06:29:22;12.77;;;6.10;;
12707;SDS011;6418;50.824;4.718;2022-07-29T06:31:51;15.97;;;6.40;;
12707;SDS011;6418;50.824;4.718;2022-07-29T06:34:17;14.53;;;6.37;;
12707;SDS011;6418;50.824;4.718;2022-07-29T06:36:45;12.63;;;5.90;;
12707;SDS011;6418;50.824;4.718;2022-07-29T06:39:12;14.13;;;6.07;;
12707;SDS011;6418;50.824;4.718;2022-07-29T06:41:39;12.07;;;6.03;;
12707;SDS011;6418;50.824;4.718;2022-07-29T06:44:06;15.37;;;6.70;;
12707;SDS011;6418;50.824;4.718;2022-07-29T06:46:33;11.20;;;6.40;;
12707;SDS011;6418;50.824;4.718;2022-07-29T06:49:01;13.83;;;6.27;;
12707;SDS011;6418;50.824;4.718;2022-07-29T06:51:28;12.23;;;6.03;;
12707;SDS011;6418;50.824;4.718;2022-07-29T06:53:55;14.57;;;6.10;;
12707;SDS011;6418;50.824;4.718;2022-07-29T06:56:23;12.13;;;5.97;;
12707;SDS011;6418;50.824;4.718;2022-07-29T06:58:50;16.03;;;6.00;;
12707;SDS011;6418;50.824;4.718;2022-07-29T07:01:17;11.97;;;6.40;;
12707;SDS011;6418;50.824;4.718;2022-07-29T07:03:44;12.87;;;6.30;;
12707;SDS011;6418;50.824;4.718;2022-07-29T07:06:13;13.93;;;6.47;;
12707;SDS011;6418;50.824;4.718;2022-07-29T07:08:40;11.10;;;6.13;;
12707;SDS011;6418;50.824;4.718;2022-07-29T07:11:07;11.07;;;6.10;;
12707;SDS011;6418;50.824;4.718;2022-07-29T07:13:34;11.53;;;6.40;;
12707;SDS011;6418;50.824;4.718;2022-07-29T07:16:01;12.07;;;6.40;;
12707;SDS011;6418;50.824;4.718;2022-07-29T07:18:29;13.47;;;6.63;;
12707;SDS011;6418;50.824;4.718;2022-07-29T07:20:56;14.13;;;6.20;;
12707;SDS011;6418;50.824;4.718;2022-07-29T07:23:25;12.87;;;5.93;;
12707;SDS011;6418;50.824;4.718;2022-07-29T07:25:52;14.07;;;6.13;;
12707;SDS011;6418;50.824;4.718;2022-07-29T07:28:19;15.40;;;6.40;;
12707;SDS011;6418;50.824;4.718;2022-07-29T07:30:46;13.53;;;6.50;;
12707;SDS011;6418;50.824;4.718;2022-07-29T07:33:13;11.27;;;6.23;;
12707;SDS011;6418;50.824;4.718;2022-07-29T07:35:40;12.67;;;6.20;;
12707;SDS011;6418;50.824;4.718;2022-07-29T07:38:07;12.20;;;6.27;;
12707;SDS011;6418;50.824;4.718;2022-07-29T07:40:36;12.90;;;6.50;;
12707;SDS011;6418;50.824;4.718;2022-07-29T07:43:03;12.03;;;6.40;;
12707;SDS011;6418;50.824;4.718;2022-07-29T07:45:30;10.00;;;5.50;;
12707;SDS011;6418;50.824;4.718;2022-07-29T07:47:58;11.70;;;6.30;;
12707;SDS011;6418;50.824;4.718;2022-07-29T07:50:26;13.93;;;6.43;;
12707;SDS011;6418;50.824;4.718;2022-07-29T07:52:53;14.13;;;6.30;;
12707;SDS011;6418;50.824;4.718;2022-07-29T07:55:22;12.17;;;6.00;;
12707;SDS011;6418;50.824;4.718;2022-07-29T07:57:52;14.53;;;6.87;;
12707;SDS011;6418;50.824;4.718;2022-07-29T08:00:19;12.87;;;6.00;;
12707;SDS011;6418;50.824;4.718;2022-07-29T08:02:46;11.73;;;6.03;;
12707;SDS011;6418;50.824;4.718;2022-07-29T08:05:13;12.40;;;6.20;;
12707;SDS011;6418;50.824;4.718;2022-07-29T08:07:43;15.50;;;6.27;;
12707;SDS011;6418;50.824;4.718;2022-07-29T08:10:11;11.37;;;6.30;;
12707;SDS011;6418;50.824;4.718;2022-07-29T08:12:38;12.47;;;6.10;;
12707;SDS011;6418;50.824;4.718;2022-07-29T08:15:08;12.03;;;6.27;;
12707;SDS011;6418;50.824;4.718;2022-07-29T08:17:35;13.37;;;5.80;;
12707;SDS011;6418;50.824;4.718;2022-07-29T08:20:03;13.73;;;6.33;;
12707;SDS011;6418;50.824;4.718;2022-07-29T08:22:30;12.03;;;5.67;;
12707;SDS011;6418;50.824;4.718;2022-07-29T08:24:57;11.67;;;6.20;;
12707;SDS011;6418;50.824;4.718;2022-07-29T08:27:24;12.00;;;5.90;;
12707;SDS011;6418;50.824;4.718;2022-07-29T08:29:51;10.67;;;6.20;;
12707;SDS011;6418;50.824;4.718;2022-07-29T08:32:22;12.60;;;5.97;;
12707;SDS011;6418;50.824;4.718;2022-07-29T08:34:49;13.80;;;5.80;;
12707;SDS011;6418;50.824;4.718;2022-07-29T08:37:16;12.20;;;5.77;;
12707;SDS011;6418;50.824;4.718;2022-07-29T08:39:44;12.50;;;5.77;;
12707;SDS011;6418;50.824;4.718;2022-07-29T08:42:11;13.33;;;5.70;;
12707;SDS011;6418;50.824;4.718;2022-07-29T08:44:38;10.33;;;5.47;;
12707;SDS011;6418;50.824;4.718;2022-07-29T08:47:05;11.57;;;5.53;;
12707;SDS011;6418;50.824;4.718;2022-07-29T08:49:34;13.47;;;5.77;;
12707;SDS011;6418;50.824;4.718;2022-07-29T08:52:02;11.57;;;5.40;;
12707;SDS011;6418;50.824;4.718;2022-07-29T08:54:29;10.53;;;5.00;;
12707;SDS011;6418;50.824;4.718;2022-07-29T08:56:56;12.63;;;6.03;;
12707;SDS011;6418;50.824;4.718;2022-07-29T08:59:25;10.63;;;5.50;;
12707;SDS011;6418;50.824;4.718;2022-07-29T09:01:53;11.90;;;5.50;;
12707;SDS011;6418;50.824;4.718;2022-07-29T09:04:24;10.47;;;5.13;;
12707;SDS011;6418;50.824;4.718;2022-07-29T09:06:54;9.70;;;5.20;;
12707;SDS011;6418;50.824;4.718;2022-07-29T09:09:26;11.07;;;5.72;;
12707;SDS011;6418;50.824;4.718;2022-07-29T09:11:53;9.90;;;4.70;;
12707;SDS011;6418;50.824;4.718;2022-07-29T09:14:20;13.07;;;4.90;;
12707;SDS011;6418;50.824;4.718;2022-07-29T09:16:48;10.15;;;5.00;;
12707;SDS011;6418;50.824;4.718;2022-07-29T09:19:21;9.20;;;5.07;;
12707;SDS011;6418;50.824;4.718;2022-07-29T09:21:53;10.38;;;4.40;;
12707;SDS011;6418;50.824;4.718;2022-07-29T09:24:26;10.60;;;4.80;;
12707;SDS011;6418;50.824;4.718;2022-07-29T09:27:04;7.15;;;4.30;;
12707;SDS011;6418;50.824;4.718;2022-07-29T09:29:44;11.45;;;4.47;;
12707;SDS011;6418;50.824;4.718;2022-07-29T09:32:11;7.10;;;4.00;;
12707;SDS011;6418;50.824;4.718;2022-07-29T09:34:38;9.13;;;4.50;;
12707;SDS011;6418;50.824;4.718;2022-07-29T09:37:06;7.85;;;4.30;;
12707;SDS011;6418;50.824;4.718;2022-07-29T09:39:34;9.82;;;4.00;;
12707;SDS011;6418;50.824;4.718;2022-07-29T09:42:03;7.07;;;4.10;;
12707;SDS011;6418;50.824;4.718;2022-07-29T09:44:42;9.07;;;3.97;;
12707;SDS011;6418;50.824;4.718;2022-07-29T09:47:10;8.50;;;3.97;;
12707;SDS011;6418;50.824;4.718;2022-07-29T09:49:49;9.68;;;4.03;;
12707;SDS011;6418;50.824;4.718;2022-07-29T09:52:20;6.65;;;3.90;;
12707;SDS011;6418;50.824;4.718;2022-07-29T09:54:47;8.02;;;3.72;;
12707;SDS011;6418;50.824;4.718;2022-07-29T09:57:21;4.75;;;3.50;;
12707;SDS011;6418;50.824;4.718;2022-07-29T09:59:55;6.38;;;3.70;;
12707;SDS011;6418;50.824;4.718;2022-07-29T10:02:26;5.70;;;3.20;;
12707;SDS011;6418;50.824;4.718;2022-07-29T10:04:55;5.47;;;3.40;;
12707;SDS011;6418;50.824;4.718;2022-07-29T10:07:24;7.88;;;3.60;;
12707;SDS011;6418;50.824;4.718;2022-07-29T10:09:55;7.43;;;3.83;;
12707;SDS011;6418;50.824;4.718;2022-07-29T10:12:23;6.13;;;3.50;;
12707;SDS011;6418;50.824;4.718;2022-07-29T10:14:50;6.55;;;3.65;;
12707;SDS011;6418;50.824;4.718;2022-07-29T10:17:18;6.60;;;3.42;;
12707;SDS011;6418;50.824;4.718;2022-07-29T10:19:45;7.78;;;3.85;;
12707;SDS011;6418;50.824;4.718;2022-07-29T10:22:13;6.55;;;3.80;;
12707;SDS011;6418;50.824;4.718;2022-07-29T10:24:42;8.93;;;3.80;;
12707;SDS011;6418;50.824;4.718;2022-07-29T10:27:09;5.60;;;3.63;;
12707;SDS011;6418;50.824;4.718;2022-07-29T10:29:37;6.10;;;3.85;;
12707;SDS011;6418;50.824;4.718;2022-07-29T10:32:09;7.20;;;3.80;;
12707;SDS011;6418;50.824;4.718;2022-07-29T10:34:48;7.32;;;3.65;;
12707;SDS011;6418;50.824;4.718;2022-07-29T10:37:33;8.52;;;3.85;;
12707;SDS011;6418;50.824;4.718;2022-07-29T10:40:21;6.07;;;3.58;;
12707;SDS011;6418;50.824;4.718;2022-07-29T10:43:14;7.80;;;3.70;;
12707;SDS011;6418;50.824;4.718;2022-07-29T10:45:45;9.63;;;3.97;;
12707;SDS011;6418;50.824;4.718;2022-07-29T10:48:14;5.68;;;3.40;;
12707;SDS011;6418;50.824;4.718;2022-07-29T10:50:54;6.60;;;3.88;;
12707;SDS011;6418;50.824;4.718;2022-07-29T10:53:22;5.25;;;3.30;;
12707;SDS011;6418;50.824;4.718;2022-07-29T10:55:51;10.18;;;3.92;;
12707;SDS011;6418;50.824;4.718;2022-07-29T10:58:19;6.78;;;3.70;;
12707;SDS011;6418;50.824;4.718;2022-07-29T11:00:47;8.60;;;3.30;;
12707;SDS011;6418;50.824;4.718;2022-07-29T11:06:10;9.65;;;3.92;;
12707;SDS011;6418;50.824;4.718;2022-07-29T11:08:37;9.35;;;3.95;;
12707;SDS011;6418;50.824;4.718;2022-07-29T11:11:31;8.45;;;3.75;;
12707;SDS011;6418;50.824;4.718;2022-07-29T11:13:59;4.53;;;3.35;;
12707;SDS011;6418;50.824;4.718;2022-07-29T11:16:26;7.07;;;3.50;;
12707;SDS011;6418;50.824;4.718;2022-07-29T11:19:27;6.72;;;3.80;;
12707;SDS011;6418;50.824;4.718;2022-07-29T11:21:54;9.48;;;3.83;;
12707;SDS011;6418;50.824;4.718;2022-07-29T11:24:22;8.02;;;3.60;;
12707;SDS011;6418;50.824;4.718;2022-07-29T11:27:16;7.90;;;3.92;;
12707;SDS011;6418;50.824;4.718;2022-07-29T11:29:51;9.35;;;3.75;;
12707;SDS011;6418;50.824;4.718;2022-07-29T11:32:19;6.00;;;3.60;;
12707;SDS011;6418;50.824;4.718;2022-07-29T11:34:47;4.43;;;3.50;;
12707;SDS011;6418;50.824;4.718;2022-07-29T11:37:16;7.07;;;3.67;;
12707;SDS011;6418;50.824;4.718;2022-07-29T11:39:45;7.43;;;3.72;;
12707;SDS011;6418;50.824;4.718;2022-07-29T11:45:07;9.25;;;3.92;;
12707;SDS011;6418;50.824;4.718;2022-07-29T11:47:37;6.03;;;3.63;;
12707;SDS011;6418;50.824;4.718;2022-07-29T11:50:07;7.28;;;3.60;;
12707;SDS011;6418;50.824;4.718;2022-07-29T11:52:36;7.50;;;3.65;;
12707;SDS011;6418;50.824;4.718;2022-07-29T11:55:08;11.27;;;4.10;;
12707;SDS011;6418;50.824;4.718;2022-07-29T11:57:37;9.10;;;3.58;;
12707;SDS011;6418;50.824;4.718;2022-07-29T12:00:13;9.02;;;3.90;;
12707;SDS011;6418;50.824;4.718;2022-07-29T12:02:54;9.82;;;3.90;;
12707;SDS011;6418;50.824;4.718;2022-07-29T12:05:30;5.43;;;3.80;;
12707;SDS011;6418;50.824;4.718;2022-07-29T12:08:09;7.40;;;3.70;;
12707;SDS011;6418;50.824;4.718;2022-07-29T12:10:37;8.35;;;3.35;;
12707;SDS011;6418;50.824;4.718;2022-07-29T12:13:06;10.00;;;4.10;;
12707;SDS011;6418;50.824;4.718;2022-07-29T12:15:34;8.63;;;4.20;;
12707;SDS011;6418;50.824;4.718;2022-07-29T12:18:10;8.80;;;3.88;;
12707;SDS011;6418;50.824;4.718;2022-07-29T12:20:39;8.85;;;3.60;;
12707;SDS011;6418;50.824;4.718;2022-07-29T12:23:06;8.60;;;4.00;;
12707;SDS011;6418;50.824;4.718;2022-07-29T12:25:36;7.50;;;3.90;;
12707;SDS011;6418;50.824;4.718;2022-07-29T12:28:05;6.43;;;3.42;;
12707;SDS011;6418;50.824;4.718;2022-07-29T12:30:35;8.40;;;3.83;;
12707;SDS011;6418;50.824;4.718;2022-07-29T12:33:14;8.15;;;3.88;;
12707;SDS011;6418;50.824;4.718;2022-07-29T12:35:45;8.63;;;3.75;;
12707;SDS011;6418;50.824;4.718;2022-07-29T12:38:14;12.75;;;4.13;;
12707;SDS011;6418;50.824;4.718;2022-07-29T12:40:42;8.32;;;3.95;;
12707;SDS011;6418;50.824;4.718;2022-07-29T12:43:12;8.07;;;3.88;;
12707;SDS011;6418;50.824;4.718;2022-07-29T12:45:41;10.35;;;3.90;;
12707;SDS011;6418;50.824;4.718;2022-07-29T12:48:10;7.03;;;3.60;;
12707;SDS011;6418;50.824;4.718;2022-07-29T12:50:51;8.93;;;4.00;;
12707;SDS011;6418;50.824;4.718;2022-07-29T12:53:20;8.98;;;3.67;;
12707;SDS011;6418;50.824;4.718;2022-07-29T12:55:48;6.32;;;3.65;;
12707;SDS011;6418;50.824;4.718;2022-07-29T12:58:27;9.75;;;3.97;;
12707;SDS011;6418;50.824;4.718;2022-07-29T13:01:03;7.22;;;3.55;;
12707;SDS011;6418;50.824;4.718;2022-07-29T13:03:43;7.70;;;3.75;;
12707;SDS011;6418;50.824;4.718;2022-07-29T13:06:28;9.48;;;3.95;;
12707;SDS011;6418;50.824;4.718;2022-07-29T13:09:06;8.13;;;3.97;;
12707;SDS011;6418;50.824;4.718;2022-07-29T13:11:36;8.88;;;3.58;;
12707;SDS011;6418;50.824;4.718;2022-07-29T13:14:06;7.85;;;3.88;;
12707;SDS011;6418;50.824;4.718;2022-07-29T13:16:34;6.75;;;3.60;;
12707;SDS011;6418;50.824;4.718;2022-07-29T13:19:03;6.93;;;3.42;;
12707;SDS011;6418;50.824;4.718;2022-07-29T13:21:31;9.32;;;3.88;;
12707;SDS011;6418;50.824;4.718;2022-07-29T13:23:58;8.45;;;3.35;;
12707;SDS011;6418;50.824;4.718;2022-07-29T13:26:25;5.95;;;3.45;;
12707;SDS011;6418;50.824;4.718;2022-07-29T13:28:53;8.85;;;3.72;;
12707;SDS011;6418;50.824;4.718;2022-07-29T13:31:21;5.60;;;3.45;;
12707;SDS011;6418;50.824;4.718;2022-07-29T13:33:48;7.22;;;3.70;;
12707;SDS011;6418;50.824;4.718;2022-07-29T13:36:15;9.88;;;3.83;;
12707;SDS011;6418;50.824;4.718;2022-07-29T13:38:42;5.70;;;3.53;;
12707;SDS011;6418;50.824;4.718;2022-07-29T13:41:09;10.40;;;3.90;;
12707;SDS011;6418;50.824;4.718;2022-07-29T13:43:36;7.35;;;3.60;;
12707;SDS011;6418;50.824;4.718;2022-07-29T13:46:03;8.30;;;3.38;;
12707;SDS011;6418;50.824;4.718;2022-07-29T13:48:31;7.10;;;3.55;;
12707;SDS011;6418;50.824;4.718;2022-07-29T13:50:58;13.23;;;3.72;;
12707;SDS011;6418;50.824;4.718;2022-07-29T13:53:25;6.35;;;3.60;;
12707;SDS011;6418;50.824;4.718;2022-07-29T13:55:53;10.23;;;3.60;;
12707;SDS011;6418;50.824;4.718;2022-07-29T13:58:20;7.65;;;3.58;;
12707;SDS011;6418;50.824;4.718;2022-07-29T14:00:47;8.80;;;3.80;;
12707;SDS011;6418;50.824;4.718;2022-07-29T14:03:13;7.38;;;3.85;;
12707;SDS011;6418;50.824;4.718;2022-07-29T14:05:42;7.60;;;3.80;;
12707;SDS011;6418;50.824;4.718;2022-07-29T14:08:09;9.85;;;3.80;;
12707;SDS011;6418;50.824;4.718;2022-07-29T14:10:37;9.65;;;3.88;;
12707;SDS011;6418;50.824;4.718;2022-07-29T14:13:03;8.80;;;3.83;;
12707;SDS011;6418;50.824;4.718;2022-07-29T14:15:30;11.25;;;4.13;;
12707;SDS011;6418;50.824;4.718;2022-07-29T14:17:57;9.50;;;3.80;;
12707;SDS011;6418;50.824;4.718;2022-07-29T14:20:24;8.63;;;4.00;;
12707;SDS011;6418;50.824;4.718;2022-07-29T14:22:54;11.65;;;3.60;;
12707;SDS011;6418;50.824;4.718;2022-07-29T14:25:22;8.48;;;4.00;;
12707;SDS011;6418;50.824;4.718;2022-07-29T14:27:49;11.43;;;3.85;;
12707;SDS011;6418;50.824;4.718;2022-07-29T14:30:18;7.63;;;4.40;;
12707;SDS011;6418;50.824;4.718;2022-07-29T14:32:45;13.15;;;4.20;;
12707;SDS011;6418;50.824;4.718;2022-07-29T14:35:12;8.25;;;4.28;;
12707;SDS011;6418;50.824;4.718;2022-07-29T14:37:39;10.90;;;4.70;;
12707;SDS011;6418;50.824;4.718;2022-07-29T14:40:08;9.77;;;4.38;;
12707;SDS011;6418;50.824;4.718;2022-07-29T14:42:36;9.82;;;4.10;;
12707;SDS011;6418;50.824;4.718;2022-07-29T14:45:04;9.48;;;4.95;;
12707;SDS011;6418;50.824;4.718;2022-07-29T14:47:32;12.00;;;4.60;;
12707;SDS011;6418;50.824;4.718;2022-07-29T14:49:59;9.25;;;4.40;;
12707;SDS011;6418;50.824;4.718;2022-07-29T14:52:26;7.30;;;4.30;;
12707;SDS011;6418;50.824;4.718;2022-07-29T14:54:53;10.05;;;4.50;;
12707;SDS011;6418;50.824;4.718;2022-07-29T14:57:21;11.27;;;5.15;;
12707;SDS011;6418;50.824;4.718;2022-07-29T14:59:48;11.57;;;4.68;;
12707;SDS011;6418;50.824;4.718;2022-07-29T15:02:15;9.82;;;4.50;;
12707;SDS011;6418;50.824;4.718;2022-07-29T15:04:42;9.40;;;4.47;;
12707;SDS011;6418;50.824;4.718;2022-07-29T15:07:11;11.32;;;4.38;;
12707;SDS011;6418;50.824;4.718;2022-07-29T15:09:38;9.40;;;4.53;;
12707;SDS011;6418;50.824;4.718;2022-07-29T15:12:05;12.07;;;4.60;;
12707;SDS011;6418;50.824;4.718;2022-07-29T15:14:34;10.73;;;4.50;;